WetterOnline ( http://www.wetteronline.de )

Wetter aktuell Nittenau

Aktuelles Wetter: Regensburg/Oberhub (371m)

6-stündlich | Neueste Meldungen
Ortszeit Temperatur Wetter
Mo, 23.04. 14:00 -° C starker Regen
Mo, 23.04. 8:00 14.8° C bewölkt
Mo, 23.04. 2:00 13.4° C wolkig
So, 22.04. 20:00 22.9° C leicht bewölkt
So, 22.04. 14:00 24.7° C wolkenlos
So, 22.04. 8:00 11.9° C wolkenlos
So, 22.04. 2:00 14.0° C wolkenlos
Sa, 21.04. 20:00 22.7° C wolkenlos
Ortszeit Temperatur Wetter
Mo, 23.04. 17:00 19.6° C bewölkt
Mo, 23.04. 16:40 19.6° C wolkig
Mo, 23.04. 16:30 19.9° C leicht bewölkt
Mo, 23.04. 16:20 19.9° C leicht bewölkt
Mo, 23.04. 16:10 19.3° C leicht bewölkt
Mo, 23.04. 16:00 19.7° C bewölkt
Mo, 23.04. 15:50 19.7° C bewölkt
Mo, 23.04. 15:30 18.4° C bewölkt
Mo, 23.04. 15:00 17.6° C bewölkt
Mo, 23.04. 14:30 -° C bewölkt
Mo, 23.04. 14:00 -° C starker Regen
Ortszeit Relative Feuchte Sichtweite
Mo, 23.04. 14:00 - 2.1 km
Mo, 23.04. 8:00 83% 20 km
Mo, 23.04. 2:00 94% 15 km
So, 22.04. 20:00 44% 30 km
So, 22.04. 14:00 38% 20 km
So, 22.04. 8:00 91% 9 km
So, 22.04. 2:00 80% 18 km
Sa, 21.04. 20:00 42% 30 km
Ortszeit Relative Feuchte Sichtweite
Mo, 23.04. 17:00 62% 45 km
Mo, 23.04. 16:40 60% -
Mo, 23.04. 16:30 63% 50 km
Mo, 23.04. 16:20 63% -
Mo, 23.04. 16:10 62% -
Mo, 23.04. 16:00 64% 35 km
Mo, 23.04. 15:50 64% -
Mo, 23.04. 15:30 73% 40 km
Mo, 23.04. 15:00 89% 27 km
Mo, 23.04. 14:30 - 18 km
Mo, 23.04. 14:00 - 2.1 km
Ortszeit Niederschlagsmenge Niederschlagsart
Mo, 23.04. 14:00 2 l/m2 in 6 Std. Regenschauer
Mo, 23.04. 8:00 1 l/m2 in 12 Std. Regen
Mo, 23.04. 2:00 1 l/m2 in 6 Std. Regenschauer
So, 22.04. 20:00 0.0 l/m2 in 12 Std. -
So, 22.04. 14:00 0.0 l/m2 in 6 Std. -
So, 22.04. 8:00 0.0 l/m2 in 12 Std. -
So, 22.04. 2:00 0.0 l/m2 in 6 Std. -
Sa, 21.04. 20:00 0.0 l/m2 in 12 Std. -
Ortszeit Niederschlagsmenge Niederschlagsart
Mo, 23.04. 17:00 0.0 l/m2 in 1 Std. Regenschauer
Mo, 23.04. 16:40 keine Meldung -
Mo, 23.04. 16:30 0.0 l/m2 in 1 Std. -
Mo, 23.04. 16:20 keine Meldung -
Mo, 23.04. 16:10 keine Meldung -
Mo, 23.04. 16:00 0.0 l/m2 in 1 Std. -
Mo, 23.04. 15:50 keine Meldung -
Mo, 23.04. 15:30 0.0 l/m2 in 1 Std. -
Mo, 23.04. 15:00 3.0 l/m2 in 1 Std. Regenschauer
Mo, 23.04. 14:30 3.0 l/m2 in 1 Std. Schneeregen
Mo, 23.04. 14:00 1.8 l/m2 in 1 Std. Regenschauer
Ortszeit Stärke Spitze Richtung
km/h Bft. km/h Grad Sektor
Mo, 23.04. 14:00 25 4 43 270° W
Mo, 23.04. 8:00 4 1 14 150° SO
Mo, 23.04. 2:00 6 1 35 340° N
So, 22.04. 20:00 4 1 25 200° S
So, 22.04. 14:00 7 2 18 130° SO
So, 22.04. 8:00 4 1 18 10° N
So, 22.04. 2:00 7 2 15 350° N
Sa, 21.04. 20:00 7 2 29 280° W
Ortszeit Stärke Spitze Richtung
km/h Bft. km/h Grad Sektor
Mo, 23.04. 17:00 18 3 29 280° W
Mo, 23.04. 16:40 13 3 - 280° W
Mo, 23.04. 16:30 14 3 29 290° W
Mo, 23.04. 16:20 14 3 - 290° W
Mo, 23.04. 16:10 13 3 - 290° W
Mo, 23.04. 16:00 14 3 32 300° NW
Mo, 23.04. 15:50 14 3 - 300° NW
Mo, 23.04. 15:30 14 3 29 280° W
Mo, 23.04. 15:00 9 2 30 280° W
Mo, 23.04. 14:30 6 1 30 250° W
Mo, 23.04. 14:00 25 4 43 270° W
Ortszeit Untergrenze Bedeckung Gattung
total tief tief mittel hoch
Mo, 23.04. 14:00 690 m 7/8 - - - -
Mo, 23.04. 8:00 3000 m 7/8 7/8 - - -
Mo, 23.04. 2:00 2700 m 5/8 4/8 - - -
So, 22.04. 20:00 2400 m 2/8 2/8 - - -
So, 22.04. 14:00 - 0/8 0/8 - - -
So, 22.04. 8:00 - 0/8 0/8 - - -
So, 22.04. 2:00 - 0/8 0/8 - - -
Sa, 21.04. 20:00 - 0/8 0/8 - - -
Ortszeit Bedeckungsgrad in Achtel und Wolkenuntergrenze
Mo, 23.04. 17:00 5(6000m) 7(6900m)
Mo, 23.04. 16:40 2(6000m) 5(6900m)
Mo, 23.04. 16:30 1(2400m)
Mo, 23.04. 16:20 1(2400m) 2(3900m)
Mo, 23.04. 16:10 3(2400m) 5(3900m)
Mo, 23.04. 16:00 5(2400m) 7(3900m) 8(4200m)
Mo, 23.04. 15:50 5(2400m) 7(3900m) 8(4200m)
Mo, 23.04. 15:30 4(3000m) 7(4200m) 7(4200m)
Mo, 23.04. 15:00 3(1800m) 6(2700m) 7(3900m)
Mo, 23.04. 14:30 1(1050m) 5(1500m) 7(2100m)
Mo, 23.04. 14:00 1(690m) 7(1800m) 7(2400m)
Ortszeit Luftdruck NN (hPa) Tendenz (hPa in 3 Std.)
Mo, 23.04. 14:00 1015 - 0,5
Mo, 23.04. 8:00 1015 + 1,0
Mo, 23.04. 2:00 1015 + 1,0
So, 22.04. 20:00 1012 - 0,4
So, 22.04. 14:00 1014 - 1,2
So, 22.04. 8:00 1017 + 0,2
So, 22.04. 2:00 1018 - 0,2
Sa, 21.04. 20:00 1016 - 0,4
Ortszeit Luftdruck NN (hPa) Tendenz (hPa in 3 Std.)
Mo, 23.04. 17:00 1014 - 0,1
Mo, 23.04. 16:40 1014 keine Meldung
Mo, 23.04. 16:30 1014 + 0,4
Mo, 23.04. 16:20 1014 keine Meldung
Mo, 23.04. 16:10 1015 keine Meldung
Mo, 23.04. 16:00 1015 + 0,2
Mo, 23.04. 15:50 1015 keine Meldung
Mo, 23.04. 15:30 1015 + 0,2
Mo, 23.04. 15:00 1015 + 0,2
Mo, 23.04. 14:30 1016 + 0,2
Mo, 23.04. 14:00 1015 - 0,5
Ortszeit Schneehöhe (cm)
Mo, 23.04. 14:00 0
Mo, 23.04. 8:00 0
Mo, 23.04. 2:00 0
So, 22.04. 20:00 0
So, 22.04. 14:00 0
So, 22.04. 8:00 0
So, 22.04. 2:00 0
Sa, 21.04. 20:00 0
Ortszeit Schneehöhe (cm)
Mo, 23.04. 17:00 0
Mo, 23.04. 16:40 0
Mo, 23.04. 16:30 0
Mo, 23.04. 16:20 0
Mo, 23.04. 16:10 0
Mo, 23.04. 16:00 0
Mo, 23.04. 15:50 0
Mo, 23.04. 15:30 0
Mo, 23.04. 15:00 0
Mo, 23.04. 14:30 0
Mo, 23.04. 14:00 0
Link zu dieser Seite / Seite empfehlen

Das Wetter in ...